LEZL Información de aeropuertos

Información de pistas
Pista 09 Longitud 11024 ft Ancho 148 ft
Elevación 83 ft Umbral 0 ft Rumbo 90
Pista 27 Longitud 11024 ft Ancho 148 ft
Elevación 111 ft Umbral 0 ft Rumbo 270
Frecuencias
Tipo APP Nombre APP Frequencia 120 MHZ
Tipo ATIS Nombre ATIS Frequencia 118.175 MHZ
Tipo GND Nombre GND Frequencia 121.7 MHZ
Tipo TWR Nombre TWR Frequencia 118.1 MHZ
Radioayudas
Tipo NDB Nombre Sevilla Frequencia 420 KHZ
Tipo VOR-DME Nombre Sevilla Frequencia 113700 KHZ
Información meteorológica y NOTAM
ADDS - METARS form results

(0250 UTC 20 January 2021)
Data provider http://aviationweather.gov/metar/data/
 
METAR text: LEZL 200230Z AUTO 21003KT 160V260 9999 OVC048 12/08 Q1019
Conditions at: LEZL (SEVILLA (CIV/MIL, ES) observed 0230 UTC 20 January 2021
Temperature: 12.0°C (54°F)
Dewpoint: 8.0°C (46°F) [RH = 76%]
Pressure (altimeter): 30.09 inches Hg (1019.0 mb)
Winds: from the SSW (210 degrees) at 3 MPH (3 knots; 1.5 m/s)
Visibility: 6 or more miles (10+ km)
Ceiling: 4800 feet AGL
Clouds: overcast cloud deck at 4800 feet AGL
Weather: no significant weather observed at this time

METAR text: LEZL 200200Z AUTO 16006KT 130V190 9999 OVC047 12/08 Q1019
Conditions at: LEZL (SEVILLA (CIV/MIL, ES) observed 0200 UTC 20 January 2021
Temperature: 12.0°C (54°F)
Dewpoint: 8.0°C (46°F) [RH = 76%]
Pressure (altimeter): 30.09 inches Hg (1019.0 mb)
Winds: from the SSE (160 degrees) at 7 MPH (6 knots; 3.1 m/s)
Visibility: 6 or more miles (10+ km)
Ceiling: 4700 feet AGL
Clouds: overcast cloud deck at 4700 feet AGL
Weather: no significant weather observed at this time

Forecast for: LEZL (SEVILLA (CIV/MIL, ES)
Text: TAF LEZL 200200Z 2003/2103 18007KT 9999 SCT030 TX17/2015Z TN09/2007Z
Forecast period: 0300 UTC 20 January 2021 to 0300 UTC 21 January 2021
Forecast type: FROM: standard forecast or significant change
Winds: from the S (180 degrees) at 8 MPH (7 knots; 3.6 m/s)
Visibility: 6 or more miles (10+ km)
Ceiling: at least 12,000 feet AGL
Clouds: scattered clouds at 3000 feet AGL
Weather: no significant weather forecast for this period
Text: TEMPO 2006/2013 20015G25KT 4000 RA BKN014
Forecast period: 0600 to 1300 UTC 20 January 2021
Forecast type: TEMPORARY: The following changes expected for less than half the time period
Winds: from the SSW (200 degrees) at 17 MPH (15 knots; 7.7 m/s)
gusting to 29 MPH (25 knots; 12.9 m/s)
Visibility: 2.49 miles (4.01 km)
Ceiling: 1400 feet AGL
Clouds: broken clouds at 1400 feet AGL
Weather: RA  (moderate rain)